logo
Search for airport 
image banner adimage banner adimage banner ad
image banner ad

YSLG - Silent Grove Airport

Located in King Leopold Ranges, Australia

ICAO - YSLG, IATA -

Data provided by Airmate  

General information

Coordinates: S17°3'24" E125°14'41"
Elevation is 1009 feet MSL.
Magnetic variation is 2° East
View others Airports in Western Australia

Operational data

Special qualification required
Current time UTC:
Current local time:
Weather at : - ( 0 km )
METAR: KXER 231805Z AUTO 23022G32KT M1/4SM FG 25/25 A3009 RMK A01
View NOTAMs / SUP AIP / TFR affecting this airport [VIEW]
Communications frequencies: [VIEW]

Runways:

RWY identifierQFULength (ft)Width (ft)SurfaceLDA (ft)
32321°4156104DIRT
14141°4156104DIRT

Airport contact information

Address: King Leopold Ranges Australia

Satellite view of YSLG